Main page
METAR-TAF:

METAR-TAF

Airports :

Cranfield Airport

Cranfield, England

latitude: 52-04N, longitude: 000-37W, elevation: 111 m

Current weather observation

The report was made 1 hour and 30 minutes ago, at 15:20 UTC
Wind 2 kt from the East/Northeast
Temperature 13°C
Humidity 88%
Pressure 1010 hPa
Visibility 10 km or more
Few clouds at a height of 1700 ft

METAR: EGTC 231520Z 06002KT 9999 FEW017 13/11 Q1010

Time: 17:50 (16:50 UTC)

Forecast

The report was made 2 hours and 52 minutes ago, at 13:58 UTC
Forecast valid from 23 at 15 UTC to 23 at 18 UTC
Wind 3 kt from variable directions
Visibility 10 km or more
Few clouds at a height of 4000 ft
Temporary
from 23 at 15 UTC to 23 at 18 UTC
Visibility: 8000 m
Broken clouds at a height of 1000 ft
light rain

TAF: EGTC 231358Z 2315/2318 VRB03KT 9999 FEW040 TEMPO 2315/2318 8000 -RA BKN010

Weather observations and forecasts of more than 4000 airports (METAR and TAF reports).

The available stations are represented by yellow and red dots on the map.

Hover mouse over dot to see the name of the station.

Then click to see weather observations and forecasts.

To change the map : click on the green buttons with a black cross to zoom in, on the green button with a dash to zoom out, or on the green arrows for adjacent maps.


METAR-TAF: